Time;durP1;ratioP1;P1;durP2;ratioP2;P2;SDS_P1;SDS_P2;PMS_P1;PMS_P2;Temp;Humidity;BMP_temperature;BMP_pressure;BME280_temperature;BME280_humidity;BME280_pressure;Samples;Min_cycle;Max_cycle;Signal;HPM_P1;HPM_P2
2023/01/19 00:01:09;;;;;;;24.63;14.43;;;-0.50;99.90;;;;;;5015420;28;20054;-85
2023/01/19 00:03:35;;;;;;;18.63;12.17;;;-0.60;99.90;;;;;;5015325;28;20414;-85
2023/01/19 00:06:07;;;;;;;19.27;11.60;;;-0.60;99.90;;;;;;5015545;28;20014;-85
2023/01/19 00:08:34;;;;;;;18.33;12.37;;;-0.60;99.90;;;;;;5015207;28;20088;-85
2023/01/19 00:11:02;;;;;;;20.80;12.50;;;-0.60;99.90;;;;;;5020216;28;20014;-85
2023/01/19 00:13:28;;;;;;;19.87;12.47;;;-0.60;99.90;;;;;;5017140;28;20057;-85
2023/01/19 00:15:54;;;;;;;21.67;12.97;;;-0.60;99.90;;;;;;5034785;28;20028;-85
2023/01/19 00:18:20;;;;;;;22.90;12.17;;;-0.60;99.90;;;;;;5034848;28;20032;-85
2023/01/19 00:20:46;;;;;;;19.43;13.07;;;-0.60;99.90;;;;;;5034764;28;20068;-85
2023/01/19 00:23:13;;;;;;;19.70;12.30;;;-0.60;99.90;;;;;;5017075;28;20556;-85
2023/01/19 00:25:41;;;;;;;21.90;12.43;;;-0.60;99.90;;;;;;5016960;28;20076;-85
2023/01/19 00:28:08;;;;;;;24.23;12.80;;;-0.60;99.90;;;;;;5034697;28;20017;-85
2023/01/19 00:30:33;;;;;;;18.27;11.40;;;-0.60;99.90;;;;;;5016793;28;20120;-85
2023/01/19 00:32:59;;;;;;;21.93;13.73;;;-0.60;99.90;;;;;;5034654;28;20108;-85
2023/01/19 00:35:25;;;;;;;16.70;10.20;;;-0.60;99.90;;;;;;5033361;28;20482;-84
2023/01/19 00:37:50;;;;;;;17.40;10.73;;;-0.60;99.90;;;;;;5030278;28;20028;-85
2023/01/19 00:40:16;;;;;;;18.20;10.33;;;-0.60;99.90;;;;;;5034223;28;20134;-85
2023/01/19 00:42:47;;;;;;;15.63;9.90;;;-0.60;99.90;;;;;;5016463;28;20065;-85
2023/01/19 00:45:15;;;;;;;16.00;9.50;;;-0.60;99.90;;;;;;5034667;28;20025;-85
2023/01/19 00:47:41;;;;;;;15.30;8.97;;;-0.60;99.90;;;;;;5034538;28;20021;-85
2023/01/19 00:50:11;;;;;;;17.53;11.37;;;-0.60;99.90;;;;;;5034661;28;20037;-85
2023/01/19 00:52:38;;;;;;;16.60;10.80;;;-0.60;99.90;;;;;;5033420;28;20489;-85
2023/01/19 00:55:06;;;;;;;19.03;9.93;;;-0.60;99.90;;;;;;5034413;28;20361;-85
2023/01/19 00:57:31;;;;;;;16.60;10.17;;;-0.60;99.90;;;;;;5034202;28;20383;-85
2023/01/19 00:59:57;;;;;;;18.93;11.57;;;-0.60;99.90;;;;;;5034294;28;20024;-85
2023/01/19 01:02:22;;;;;;;18.83;10.73;;;-0.60;99.90;;;;;;5016306;28;20415;-85
2023/01/19 01:04:53;;;;;;;17.83;10.53;;;-0.60;99.90;;;;;;5016208;28;20454;-85
2023/01/19 01:07:20;;;;;;;19.17;10.97;;;-0.60;99.90;;;;;;5034449;28;20021;-85
2023/01/19 01:09:45;;;;;;;20.13;12.63;;;-0.60;99.90;;;;;;5033835;28;20025;-85
2023/01/19 01:12:11;;;;;;;18.40;11.30;;;-0.60;99.90;;;;;;5033857;28;20098;-85
2023/01/19 01:14:36;;;;;;;20.67;11.47;;;-0.60;99.90;;;;;;5016305;28;20428;-85
2023/01/19 01:17:02;;;;;;;14.67;10.37;;;-0.60;99.90;;;;;;5033931;28;20526;-85
2023/01/19 01:19:28;;;;;;;18.17;10.33;;;-0.60;99.90;;;;;;5015793;28;20029;-85
2023/01/19 01:21:54;;;;;;;17.03;11.33;;;-0.60;99.90;;;;;;5016148;28;20022;-85
2023/01/19 01:24:20;;;;;;;17.77;11.60;;;-0.60;99.90;;;;;;5033655;28;20100;-85
2023/01/19 01:26:46;;;;;;;16.07;11.07;;;-0.60;99.90;;;;;;5033672;28;20076;-85
2023/01/19 01:29:11;;;;;;;15.17;9.93;;;-0.60;99.90;;;;;;5033584;28;20103;-85
2023/01/19 01:31:37;;;;;;;17.13;10.20;;;-0.60;99.90;;;;;;5033495;28;20030;-86
2023/01/19 01:34:02;;;;;;;15.03;10.03;;;-0.60;99.90;;;;;;5033689;28;20022;-85
2023/01/19 01:36:30;;;;;;;16.13;10.67;;;-0.70;99.90;;;;;;5016506;28;20030;-85
2023/01/19 01:38:56;;;;;;;15.00;9.83;;;-0.70;99.90;;;;;;5033348;28;20025;-85
2023/01/19 01:41:22;;;;;;;15.80;10.00;;;-0.70;99.90;;;;;;5015748;28;20140;-85
2023/01/19 01:43:52;;;;;;;15.60;10.00;;;-0.70;99.90;;;;;;5034879;28;20021;-85
2023/01/19 01:46:18;;;;;;;13.73;9.20;;;-0.70;99.90;;;;;;5034925;28;20017;-85
2023/01/19 01:48:50;;;;;;;16.83;10.40;;;-0.60;99.90;;;;;;5034574;28;20083;-85
2023/01/19 01:51:25;;;;;;;12.30;8.67;;;-0.70;99.90;;;;;;5034131;28;20463;-85
2023/01/19 01:54:08;;;;;;;17.60;9.18;;;-0.70;99.90;;;;;;5033671;28;20416;-85
2023/01/19 01:56:39;;;;;;;16.93;8.90;;;-0.70;99.90;;;;;;5015726;28;20060;-85
2023/01/19 01:59:10;;;;;;;16.07;9.33;;;-0.70;99.90;;;;;;5033391;28;20108;-85
2023/01/19 02:04:20;;;;;;;11.50;7.40;;;-0.70;99.90;;;;;;5033419;28;20112;-85
2023/01/19 02:15:02;;;;;;;12.67;8.10;;;-0.80;99.90;;;;;;5032994;28;20123;-85
2023/01/19 02:17:27;;;;;;;14.27;8.33;;;-0.80;99.90;;;;;;5015150;28;20077;-85
2023/01/19 02:19:53;;;;;;;16.87;8.80;;;-0.80;99.90;;;;;;5032739;28;20030;-86
2023/01/19 02:22:34;;;;;;;14.10;8.83;;;-0.80;99.90;;;;;;5033125;28;20501;-85
2023/01/19 02:25:04;;;;;;;14.17;9.13;;;-0.80;99.90;;;;;;5033098;28;20026;-85
2023/01/19 02:27:30;;;;;;;13.23;8.83;;;-0.80;99.90;;;;;;5032866;28;20017;-85
2023/01/19 02:29:56;;;;;;;14.53;8.70;;;-0.80;99.90;;;;;;5032788;28;20029;-86
2023/01/19 02:32:22;;;;;;;11.80;8.00;;;-0.80;99.90;;;;;;5032760;28;20385;-86
2023/01/19 02:34:48;;;;;;;10.67;7.20;;;-0.80;99.90;;;;;;5033256;28;20025;-85
2023/01/19 02:37:15;;;;;;;12.97;8.27;;;-0.80;99.90;;;;;;5032673;28;20104;-85
2023/01/19 02:39:45;;;;;;;13.30;8.67;;;-0.80;99.90;;;;;;5032706;28;20029;-85
2023/01/19 02:42:17;;;;;;;17.03;9.07;;;-0.90;99.90;;;;;;5032698;28;20022;-85
2023/01/19 02:44:45;;;;;;;18.27;10.23;;;-0.90;99.90;;;;;;5032647;28;20076;-85
2023/01/19 02:47:12;;;;;;;13.97;9.37;;;-0.90;99.90;;;;;;5015636;28;20461;-85
2023/01/19 02:49:37;;;;;;;16.00;9.70;;;-0.90;99.90;;;;;;5015151;28;20365;-85
2023/01/19 02:52:03;;;;;;;13.80;9.43;;;-0.90;99.90;;;;;;5032635;28;20100;-85
2023/01/19 02:55:03;;;;;;;14.63;9.67;;;-1.00;99.90;;;;;;5033043;28;20041;-85
2023/01/19 02:57:42;;;;;;;18.80;10.40;;;-1.00;99.90;;;;;;5032873;28;20028;-85
2023/01/19 03:00:24;;;;;;;22.20;11.37;;;-1.10;99.90;;;;;;5032714;28;20343;-86
2023/01/19 03:03:11;;;;;;;18.87;12.27;;;-1.10;99.90;;;;;;5032852;28;20021;-85
2023/01/19 03:05:47;;;;;;;18.23;12.23;;;-1.10;99.90;;;;;;5015145;28;20084;-85
2023/01/19 03:08:38;;;;;;;20.57;11.80;;;-1.10;99.90;;;;;;5033398;28;20398;-85
2023/01/19 03:11:05;;;;;;;19.43;12.60;;;-1.10;99.90;;;;;;5034056;28;20049;-85
2023/01/19 03:13:44;;;;;;;17.80;11.87;;;-1.10;99.90;;;;;;5034515;28;20036;-85
2023/01/19 03:16:23;;;;;;;21.53;12.07;;;-1.20;99.90;;;;;;5019833;28;20029;-85
2023/01/19 03:18:54;;;;;;;18.07;12.27;;;-1.20;99.90;;;;;;5019701;28;20030;-85
2023/01/19 03:21:22;;;;;;;20.53;10.90;;;-1.20;99.90;;;;;;5038477;28;20025;-85
2023/01/19 03:23:49;;;;;;;19.20;12.03;;;-1.20;99.90;;;;;;5020409;28;20454;-85
2023/01/19 03:26:20;;;;;;;17.30;11.83;;;-1.20;99.90;;;;;;5037451;28;20025;-84
2023/01/19 03:28:47;;;;;;;19.87;12.23;;;-1.20;99.90;;;;;;5036657;28;20018;-85
2023/01/19 03:31:16;;;;;;;18.37;11.37;;;-1.20;99.90;;;;;;5035874;28;20021;-85
2023/01/19 03:33:47;;;;;;;19.30;11.80;;;-1.20;99.90;;;;;;5035843;28;20036;-86
2023/01/19 03:36:37;;;;;;;16.83;11.00;;;-1.20;99.90;;;;;;5036076;28;20079;-85
2023/01/19 03:39:06;;;;;;;16.03;11.40;;;-1.20;99.90;;;;;;5017581;28;20030;-85
2023/01/19 03:41:33;;;;;;;19.63;12.07;;;-1.30;99.90;;;;;;5036395;28;20095;-85
2023/01/19 03:43:59;;;;;;;15.90;11.70;;;-1.30;99.90;;;;;;5036122;28;20101;-85
2023/01/19 03:46:26;;;;;;;15.30;11.37;;;-1.30;99.90;;;;;;5018180;28;20025;-85
2023/01/19 03:48:52;;;;;;;19.03;11.93;;;-1.40;99.90;;;;;;5036064;28;20028;-85
2023/01/19 03:51:18;;;;;;;18.90;11.40;;;-1.40;99.90;;;;;;5017700;28;20078;-85
2023/01/19 03:53:44;;;;;;;19.33;12.63;;;-1.40;99.90;;;;;;5035520;28;20032;-85
2023/01/19 03:56:17;;;;;;;15.77;10.93;;;-1.40;99.90;;;;;;5035472;28;20082;-84
2023/01/19 03:58:42;;;;;;;18.77;11.63;;;-1.50;99.90;;;;;;5035465;28;20466;-85
2023/01/19 04:01:08;;;;;;;19.47;11.60;;;-1.50;99.90;;;;;;5017828;28;20087;-84
2023/01/19 04:03:34;;;;;;;17.47;11.67;;;-1.50;99.90;;;;;;5018634;28;20030;-84
2023/01/19 04:05:59;;;;;;;21.80;12.90;;;-1.50;99.90;;;;;;5038705;28;20018;-85
2023/01/19 04:08:25;;;;;;;17.53;12.03;;;-1.50;99.90;;;;;;5041125;28;20029;-84
2023/01/19 04:10:50;;;;;;;22.77;13.17;;;-1.50;99.90;;;;;;5039690;28;20079;-85
2023/01/19 04:13:16;;;;;;;21.23;13.17;;;-1.50;99.90;;;;;;5035471;28;20031;-84
2023/01/19 04:15:41;;;;;;;19.43;12.57;;;-1.50;99.90;;;;;;5035617;28;20057;-85
2023/01/19 04:18:07;;;;;;;20.70;13.47;;;-1.50;99.90;;;;;;5036018;28;20029;-84
2023/01/19 04:20:33;;;;;;;21.40;13.13;;;-1.50;99.90;;;;;;5034994;28;20029;-84
2023/01/19 04:22:59;;;;;;;21.20;13.10;;;-1.60;99.90;;;;;;5035088;28;20070;-85
2023/01/19 04:25:26;;;;;;;18.70;13.50;;;-1.60;99.90;;;;;;5035341;28;20026;-84
2023/01/19 04:27:52;;;;;;;20.70;13.33;;;-1.60;99.90;;;;;;5034241;28;20034;-85
2023/01/19 04:30:18;;;;;;;19.07;12.87;;;-1.60;99.90;;;;;;5035303;28;20100;-84
2023/01/19 04:32:44;;;;;;;24.33;14.03;;;-1.60;99.90;;;;;;5034810;28;20068;-84
2023/01/19 04:35:09;;;;;;;17.70;12.57;;;-1.60;99.90;;;;;;5017080;28;20458;-85
2023/01/19 04:37:35;;;;;;;25.17;14.47;;;-1.60;99.90;;;;;;5035047;28;20112;-84
2023/01/19 04:40:00;;;;;;;19.97;13.07;;;-1.70;99.90;;;;;;5016520;28;20038;-84
2023/01/19 04:42:26;;;;;;;19.63;13.00;;;-1.70;99.90;;;;;;5034080;28;20025;-88
2023/01/19 04:44:52;;;;;;;17.53;12.57;;;-1.70;99.90;;;;;;5023941;28;20151;-88
2023/01/19 04:47:18;;;;;;;19.37;12.20;;;-1.80;99.90;;;;;;5014256;28;20029;-88
2023/01/19 04:49:44;;;;;;;18.50;12.50;;;-1.80;99.90;;;;;;5031147;28;20381;-88
2023/01/19 04:52:10;;;;;;;22.93;13.30;;;-1.80;99.90;;;;;;5029319;28;20112;-88
2023/01/19 04:54:35;;;;;;;20.30;12.40;;;-1.90;99.90;;;;;;5032009;28;20044;-88
2023/01/19 04:57:01;;;;;;;20.40;12.97;;;-1.90;99.90;;;;;;5027281;28;20029;-88
2023/01/19 04:59:26;;;;;;;21.83;12.43;;;-1.90;99.90;;;;;;5028543;28;20029;-88
2023/01/19 05:01:52;;;;;;;20.40;12.63;;;-1.90;99.90;;;;;;5027505;28;20976;-88
2023/01/19 05:04:17;;;;;;;19.77;13.27;;;-2.00;99.90;;;;;;5027407;28;20022;-88
2023/01/19 05:06:43;;;;;;;23.07;12.93;;;-2.00;99.90;;;;;;5027581;28;20060;-88
2023/01/19 05:09:12;;;;;;;19.50;13.20;;;-2.00;99.90;;;;;;5027369;28;20440;-88
2023/01/19 05:11:37;;;;;;;20.60;13.70;;;-2.00;99.90;;;;;;5026952;28;20417;-88
2023/01/19 05:14:03;;;;;;;22.03;13.73;;;-2.10;99.90;;;;;;5027312;28;20029;-88
2023/01/19 05:16:33;;;;;;;20.83;13.50;;;-2.10;99.90;;;;;;5028794;28;20084;-88
2023/01/19 05:18:59;;;;;;;20.90;13.70;;;-2.10;99.90;;;;;;5006677;28;20436;-88
2023/01/19 05:21:24;;;;;;;23.20;14.47;;;-2.20;99.90;;;;;;5023421;28;20079;-88
2023/01/19 05:23:50;;;;;;;25.80;15.50;;;-2.20;99.90;;;;;;5029196;28;20433;-88
2023/01/19 05:26:15;;;;;;;19.37;14.03;;;-2.20;99.90;;;;;;5022541;28;20041;-87
2023/01/19 05:28:41;;;;;;;21.67;14.40;;;-2.30;99.90;;;;;;5030310;28;20079;-78
2023/01/19 05:31:07;;;;;;;27.07;15.03;;;-2.30;99.90;;;;;;5032023;28;20028;-84
2023/01/19 05:33:32;;;;;;;26.37;14.63;;;-2.30;99.90;;;;;;5016982;28;20037;-85
2023/01/19 05:35:58;;;;;;;25.43;14.27;;;-2.40;99.90;;;;;;5017629;28;20033;-84
2023/01/19 05:38:23;;;;;;;26.80;15.20;;;-2.40;99.90;;;;;;5011860;28;20037;-86
2023/01/19 05:40:55;;;;;;;24.67;14.80;;;-2.40;99.90;;;;;;5033172;28;20088;-86
2023/01/19 05:43:21;;;;;;;25.63;15.93;;;-2.50;99.90;;;;;;5033499;28;20025;-86
2023/01/19 05:45:46;;;;;;;27.97;15.70;;;-2.50;99.90;;;;;;5002303;28;20071;-86
2023/01/19 05:48:12;;;;;;;25.70;15.93;;;-2.50;99.90;;;;;;5030507;28;20025;-86
2023/01/19 05:50:38;;;;;;;24.33;15.53;;;-2.60;99.90;;;;;;5016136;28;20108;-86
2023/01/19 05:53:03;;;;;;;23.03;15.57;;;-2.60;99.90;;;;;;4995792;28;20030;-86
2023/01/19 05:55:29;;;;;;;25.43;16.63;;;-2.60;99.90;;;;;;5026519;28;20044;-86
2023/01/19 05:57:54;;;;;;;27.90;16.13;;;-2.60;99.90;;;;;;5033624;28;20033;-86
2023/01/19 06:00:20;;;;;;;25.10;15.97;;;-2.60;99.90;;;;;;5032880;28;20351;-86
2023/01/19 06:02:48;;;;;;;25.97;16.77;;;-2.60;99.90;;;;;;5032297;28;20102;-85
2023/01/19 06:05:14;;;;;;;24.57;16.00;;;-2.70;99.90;;;;;;5010095;28;20026;-91
2023/01/19 06:07:39;;;;;;;28.20;17.40;;;-2.70;99.90;;;;;;5029122;28;20033;-85
2023/01/19 06:10:08;;;;;;;30.37;16.77;;;-2.70;99.90;;;;;;5027261;28;20040;-85
2023/01/19 06:12:34;;;;;;;27.97;16.93;;;-2.70;99.90;;;;;;4988228;28;20029;-79
2023/01/19 06:14:59;;;;;;;29.13;17.33;;;-2.70;99.90;;;;;;5023250;28;20116;-79
2023/01/19 06:17:25;;;;;;;29.63;18.40;;;-2.70;99.90;;;;;;5004558;28;20496;-79
2023/01/19 06:19:51;;;;;;;28.90;18.20;;;-2.70;99.90;;;;;;5025371;28;20037;-80
2023/01/19 06:22:16;;;;;;;28.77;18.63;;;-2.60;99.90;;;;;;5023327;28;20112;-79
2023/01/19 06:24:42;;;;;;;27.53;17.83;;;-2.60;99.90;;;;;;5022620;28;20033;-79
2023/01/19 06:27:07;;;;;;;29.73;18.50;;;-2.60;99.90;;;;;;5020270;28;20021;-80
2023/01/19 06:29:33;;;;;;;28.87;18.03;;;-2.60;99.90;;;;;;5020625;28;20033;-80
2023/01/19 06:31:59;;;;;;;28.80;16.87;;;-2.60;99.90;;;;;;5023442;28;20034;-80
2023/01/19 06:34:27;;;;;;;31.60;17.57;;;-2.60;99.90;;;;;;5022262;28;20033;-79
2023/01/19 06:36:56;;;;;;;29.30;17.33;;;-2.50;99.90;;;;;;5023383;28;20058;-80
2023/01/19 06:39:22;;;;;;;26.90;17.20;;;-2.50;99.90;;;;;;5022985;28;20069;-80
2023/01/19 06:41:48;;;;;;;31.63;18.40;;;-2.50;99.90;;;;;;5023394;28;20085;-80
2023/01/19 06:44:13;;;;;;;29.47;16.97;;;-2.50;99.90;;;;;;5023317;28;20026;-80
2023/01/19 06:46:39;;;;;;;27.93;17.77;;;-2.40;99.90;;;;;;5022246;28;20034;-80
2023/01/19 06:49:05;;;;;;;26.20;17.20;;;-2.40;99.90;;;;;;5001243;28;20064;-79
2023/01/19 06:51:31;;;;;;;29.37;17.53;;;-2.40;99.90;;;;;;5023922;28;20018;-81
2023/01/19 06:53:56;;;;;;;25.93;16.90;;;-2.50;99.90;;;;;;5026428;28;20093;-81
2023/01/19 06:56:22;;;;;;;25.40;16.57;;;-2.40;99.90;;;;;;5026892;28;20098;-81
2023/01/19 06:58:49;;;;;;;28.10;16.87;;;-2.40;99.90;;;;;;5002455;28;20107;-80
2023/01/19 07:01:15;;;;;;;24.23;15.10;;;-2.50;99.90;;;;;;5005361;28;20034;-80
2023/01/19 07:03:40;;;;;;;27.50;16.00;;;-2.50;99.90;;;;;;5024122;28;20026;-80
2023/01/19 07:06:06;;;;;;;25.07;16.47;;;-2.50;99.90;;;;;;5025975;28;20139;-81
2023/01/19 07:08:33;;;;;;;26.30;15.83;;;-2.50;99.90;;;;;;5025134;28;20033;-85
2023/01/19 07:11:06;;;;;;;29.80;16.97;;;-2.50;99.90;;;;;;5026737;28;20025;-86
2023/01/19 07:13:33;;;;;;;25.57;16.90;;;-2.60;99.90;;;;;;5024411;28;20030;-86
2023/01/19 07:16:06;;;;;;;26.07;16.77;;;-2.60;99.90;;;;;;5021611;28;20034;-86
2023/01/19 07:18:32;;;;;;;28.97;16.10;;;-2.60;99.90;;;;;;5023785;28;20034;-86
2023/01/19 07:20:58;;;;;;;30.13;16.50;;;-2.70;99.90;;;;;;5005025;28;20462;-86
2023/01/19 07:23:24;;;;;;;26.43;16.93;;;-2.70;99.90;;;;;;5024371;28;20026;-85
2023/01/19 07:25:49;;;;;;;24.87;15.73;;;-2.70;99.90;;;;;;5019066;28;20370;-86
2023/01/19 07:28:15;;;;;;;26.23;15.60;;;-2.70;99.90;;;;;;5018278;28;20083;-86
2023/01/19 07:30:47;;;;;;;30.70;16.63;;;-2.70;99.90;;;;;;5020690;28;20033;-85
2023/01/19 07:33:12;;;;;;;28.63;16.70;;;-2.80;99.90;;;;;;5019456;28;20433;-86
2023/01/19 07:35:38;;;;;;;25.60;15.47;;;-2.80;99.90;;;;;;4999740;28;20017;-86
2023/01/19 07:38:03;;;;;;;26.73;17.17;;;-2.80;99.90;;;;;;5020788;28;20181;-86
2023/01/19 07:40:29;;;;;;;23.13;15.50;;;-2.80;99.90;;;;;;5020660;28;20817;-86
2023/01/19 07:42:55;;;;;;;23.63;14.97;;;-2.80;99.90;;;;;;5021005;28;20037;-86
2023/01/19 07:45:20;;;;;;;28.33;15.30;;;-2.80;99.90;;;;;;5021875;28;20041;-85
2023/01/19 07:47:50;;;;;;;24.60;16.33;;;-2.80;99.90;;;;;;5020897;28;20129;-85
2023/01/19 07:50:20;;;;;;;30.90;17.77;;;-2.80;99.90;;;;;;5021094;28;20033;-86
2023/01/19 07:52:45;;;;;;;25.60;16.37;;;-2.80;99.90;;;;;;5022104;28;20021;-86
2023/01/19 07:55:11;;;;;;;25.27;16.87;;;-2.80;99.90;;;;;;5022223;28;20742;-81
2023/01/19 07:57:37;;;;;;;29.90;17.07;;;-2.70;99.90;;;;;;5025297;28;20109;-80
2023/01/19 08:00:03;;;;;;;31.80;18.33;;;-2.80;99.90;;;;;;5023630;28;20022;-86
2023/01/19 08:02:30;;;;;;;24.73;16.13;;;-2.70;99.90;;;;;;5013728;28;20041;-85
2023/01/19 08:04:56;;;;;;;25.33;15.97;;;-2.70;99.90;;;;;;5014063;28;20057;-86
2023/01/19 08:07:21;;;;;;;23.30;14.50;;;-2.70;99.90;;;;;;4994544;28;20120;-86
2023/01/19 08:09:47;;;;;;;23.13;14.07;;;-2.70;99.90;;;;;;5015284;28;20151;-86
2023/01/19 08:12:12;;;;;;;21.47;14.33;;;-2.70;99.90;;;;;;5019407;28;20030;-86
2023/01/19 08:14:38;;;;;;;25.30;14.37;;;-2.60;99.90;;;;;;4999908;28;20430;-86
2023/01/19 08:17:04;;;;;;;26.73;16.63;;;-2.60;99.90;;;;;;5017576;28;20034;-86
2023/01/19 08:19:29;;;;;;;26.60;15.30;;;-2.60;99.90;;;;;;5019671;28;20033;-86
2023/01/19 08:21:57;;;;;;;25.00;15.13;;;-2.60;99.90;;;;;;5017392;28;20128;-86
2023/01/19 08:24:27;;;;;;;20.67;14.60;;;-2.50;99.90;;;;;;5012541;28;20128;-86
2023/01/19 08:26:58;;;;;;;23.13;14.67;;;-2.50;99.90;;;;;;5001121;28;20488;-86
2023/01/19 08:29:24;;;;;;;22.90;14.07;;;-2.50;99.90;;;;;;5000827;28;20061;-86
2023/01/19 08:31:49;;;;;;;23.23;14.17;;;-2.40;99.90;;;;;;5019718;28;20025;-86
2023/01/19 08:34:15;;;;;;;20.97;13.33;;;-2.40;99.90;;;;;;5020036;28;20045;-86
2023/01/19 08:36:40;;;;;;;22.07;13.67;;;-2.30;99.90;;;;;;5021577;28;20030;-86
2023/01/19 08:39:06;;;;;;;21.87;13.10;;;-2.30;99.90;;;;;;5020163;28;20116;-87
2023/01/19 08:41:32;;;;;;;19.80;13.10;;;-2.20;99.90;;;;;;5018020;28;20042;-86
2023/01/19 08:43:57;;;;;;;24.07;14.30;;;-2.20;99.90;;;;;;5019686;28;20057;-86
2023/01/19 08:46:23;;;;;;;23.97;13.70;;;-2.20;99.90;;;;;;5018387;28;20423;-86
2023/01/19 08:48:49;;;;;;;20.27;13.27;;;-2.20;99.90;;;;;;5017237;28;20029;-86
2023/01/19 08:51:15;;;;;;;21.07;13.60;;;-2.20;99.90;;;;;;5001564;28;20516;-86
2023/01/19 08:53:42;;;;;;;23.73;13.57;;;-2.10;99.90;;;;;;5020929;28;20128;-86
2023/01/19 08:56:13;;;;;;;25.83;13.70;;;-2.10;99.90;;;;;;5000886;28;20041;-86
2023/01/19 08:58:40;;;;;;;22.60;12.87;;;-2.10;99.90;;;;;;5019676;28;20040;-86
2023/01/19 09:01:08;;;;;;;19.77;13.30;;;-2.00;99.90;;;;;;5000070;28;20115;-87
2023/01/19 09:03:37;;;;;;;21.27;13.20;;;-1.90;99.90;;;;;;5019590;28;20026;-86
2023/01/19 09:06:07;;;;;;;18.53;12.03;;;-1.80;99.90;;;;;;5000580;28;20040;-86
2023/01/19 09:08:32;;;;;;;19.53;12.97;;;-1.80;99.90;;;;;;5019620;28;20040;-86
2023/01/19 09:10:58;;;;;;;20.17;12.60;;;-1.70;99.90;;;;;;5020486;28;20037;-86
2023/01/19 09:13:24;;;;;;;17.90;12.40;;;-1.70;99.90;;;;;;5018584;28;20672;-86
2023/01/19 09:15:50;;;;;;;21.93;13.17;;;-1.70;99.90;;;;;;5020979;28;20633;-86
2023/01/19 09:18:18;;;;;;;20.93;13.63;;;-1.70;99.90;;;;;;5017161;28;20921;-86
2023/01/19 09:20:46;;;;;;;22.63;12.57;;;-1.70;99.90;;;;;;5018647;28;20133;-87
2023/01/19 09:23:14;;;;;;;19.97;12.90;;;-1.70;99.90;;;;;;5031637;28;20391;-86
2023/01/19 09:25:41;;;;;;;20.70;12.87;;;-1.70;99.90;;;;;;5036822;28;20029;-86
2023/01/19 09:28:10;;;;;;;18.73;11.80;;;-1.70;99.90;;;;;;5002195;28;20040;-86
2023/01/19 09:30:37;;;;;;;19.33;12.30;;;-1.70;99.90;;;;;;5019091;28;20175;-87
2023/01/19 09:33:05;;;;;;;18.60;11.80;;;-1.70;99.90;;;;;;5020367;28;20030;-86
2023/01/19 09:35:31;;;;;;;18.60;10.97;;;-1.70;99.90;;;;;;5020990;28;21483;-82
2023/01/19 09:37:57;;;;;;;21.50;12.23;;;-1.60;99.90;;;;;;5016916;28;20033;-81
2023/01/19 09:40:26;;;;;;;20.63;12.10;;;-1.70;99.90;;;;;;5001728;28;20406;-87
2023/01/19 09:43:11;;;;;;;20.30;12.70;;;-1.70;99.90;;;;;;5011806;28;20060;-89
2023/01/19 09:45:49;;;;;;;22.80;12.23;;;-1.60;99.90;;;;;;5023565;28;20018;-89
2023/01/19 09:48:33;;;;;;;18.40;11.57;;;-1.60;99.90;;;;;;5028528;28;20049;-88
2023/01/19 09:51:03;;;;;;;17.90;11.80;;;-1.50;99.90;;;;;;5027957;28;20025;-89
2023/01/19 09:53:37;;;;;;;17.47;11.33;;;-1.50;99.90;;;;;;5008099;28;21469;-89
2023/01/19 09:56:03;;;;;;;17.93;10.50;;;-1.50;99.90;;;;;;5023671;28;20025;-90
2023/01/19 09:58:29;;;;;;;16.50;10.43;;;-1.40;99.90;;;;;;5028512;28;20287;-89
2023/01/19 10:01:02;;;;;;;19.70;11.73;;;-1.40;99.90;;;;;;5007487;28;20092;-89
2023/01/19 10:03:29;;;;;;;16.87;11.03;;;-1.40;99.90;;;;;;5023941;28;20025;-89
2023/01/19 10:06:02;;;;;;;17.53;10.47;;;-1.30;99.90;;;;;;5023805;28;20022;-90
2023/01/19 10:08:55;;;;;;;19.10;12.17;;;-1.30;99.90;;;;;;5028664;28;20079;-89
2023/01/19 10:11:35;;;;;;;16.77;11.17;;;-1.30;99.90;;;;;;5025748;28;20018;-89
2023/01/19 10:14:04;;;;;;;18.10;10.77;;;-1.20;99.90;;;;;;5030534;28;20065;-89
2023/01/19 10:16:59;;;;;;;18.13;11.50;;;-1.10;99.90;;;;;;5008113;28;20025;-89
2023/01/19 10:19:36;;;;;;;19.17;12.33;;;-1.10;99.90;;;;;;5027701;28;20026;-88
2023/01/19 10:22:18;;;;;;;16.20;10.80;;;-1.00;99.90;;;;;;5027049;28;20021;-89
2023/01/19 10:24:46;;;;;;;17.73;11.03;;;-0.90;99.90;;;;;;5013733;28;20021;-88
2023/01/19 10:27:22;;;;;;;16.37;10.80;;;-0.80;99.90;;;;;;5032103;28;20049;-89
2023/01/19 10:29:48;;;;;;;16.07;10.30;;;-0.60;99.90;;;;;;5008219;28;20033;-89
2023/01/19 10:32:16;;;;;;;15.47;10.27;;;-0.50;99.90;;;;;;5031826;28;20296;-89
2023/01/19 10:34:42;;;;;;;19.10;11.43;;;-0.50;99.90;;;;;;5013789;28;20032;-89
2023/01/19 10:37:16;;;;;;;18.50;11.23;;;-0.40;99.90;;;;;;5032614;28;20029;-89
2023/01/19 10:39:44;;;;;;;12.13;9.27;;;-0.30;99.90;;;;;;5030511;28;20136;-88
2023/01/19 10:42:19;;;;;;;15.63;10.20;;;-0.30;99.90;;;;;;5032262;28;20275;-89
2023/01/19 10:44:44;;;;;;;11.32;8.10;;;-0.30;99.90;;;;;;5011428;28;21478;-89
2023/01/19 10:47:23;;;;;;;17.30;10.07;;;-0.30;99.90;;;;;;5033385;28;20044;-90
2023/01/19 10:49:49;;;;;;;14.90;10.03;;;-0.30;99.90;;;;;;5033002;28;20029;-91
2023/01/19 10:52:23;;;;;;;14.07;9.20;;;-0.20;99.90;;;;;;5035250;28;20052;-90
2023/01/19 10:54:52;;;;;;;17.87;9.97;;;-0.10;99.90;;;;;;5015535;28;20029;-89
2023/01/19 10:57:30;;;;;;;13.37;8.90;;;-0.10;99.90;;;;;;5031231;28;20021;-90
2023/01/19 10:59:56;;;;;;;15.50;9.53;;;-0.10;99.90;;;;;;5028003;28;20033;-91
2023/01/19 11:02:27;;;;;;;16.27;9.27;;;-0.10;99.90;;;;;;5013563;28;20040;-90
2023/01/19 11:04:58;;;;;;;13.57;8.93;;;-0.10;99.90;;;;;;5018630;28;20057;-86
2023/01/19 11:07:28;;;;;;;13.67;8.67;;;-0.10;99.90;;;;;;5036318;28;20021;-92
2023/01/19 11:10:25;;;;;;;18.73;8.87;;;0.00;99.90;;;;;;5029298;28;20022;-91
2023/01/19 11:13:02;;;;;;;12.10;8.53;;;0.00;99.90;;;;;;5035458;28;20135;-91
2023/01/19 11:15:41;;;;;;;13.40;9.00;;;0.00;99.90;;;;;;5030057;28;20021;-91
2023/01/19 11:18:07;;;;;;;13.07;9.13;;;0.10;99.90;;;;;;5006359;28;20029;-90
2023/01/19 11:21:05;;;;;;;13.00;8.03;;;0.00;99.90;;;;;;5028909;28;20940;-91
2023/01/19 11:23:50;;;;;;;13.13;8.00;;;0.10;99.90;;;;;;5010076;28;20037;-91
2023/01/19 11:26:33;;;;;;;21.90;8.57;;;0.10;99.90;;;;;;5026107;28;20021;-89
2023/01/19 11:29:01;;;;;;;25.00;9.93;;;0.20;99.90;;;;;;5025692;28;20056;-90
2023/01/19 11:31:34;;;;;;;13.80;8.17;;;0.30;99.90;;;;;;5027659;28;20037;-90
2023/01/19 11:34:30;;;;;;;12.93;7.93;;;0.40;99.90;;;;;;5027433;28;20129;-90
2023/01/19 11:36:57;;;;;;;13.27;7.43;;;0.50;99.90;;;;;;5014297;28;20033;-91
2023/01/19 11:39:26;;;;;;;13.67;7.80;;;0.60;99.90;;;;;;5032152;28;20382;-89
2023/01/19 11:42:03;;;;;;;14.73;7.87;;;0.60;99.90;;;;;;5005191;28;20112;-90
2023/01/19 11:44:35;;;;;;;11.90;7.77;;;0.60;99.90;;;;;;5005518;28;20132;-90
2023/01/19 11:47:10;;;;;;;13.43;7.57;;;0.70;99.90;;;;;;5024219;28;20400;-90
2023/01/19 11:49:39;;;;;;;15.25;7.88;;;0.80;99.90;;;;;;5023490;28;20025;-91
2023/01/19 11:52:29;;;;;;;15.70;7.47;;;0.80;99.90;;;;;;5011574;28;20026;-90
2023/01/19 11:55:26;;;;;;;11.70;7.70;;;0.80;99.90;;;;;;5027010;28;21277;-88
2023/01/19 11:57:52;;;;;;;10.60;7.17;;;0.80;99.90;;;;;;5006526;28;20037;-91
2023/01/19 12:00:50;;;;;;;9.70;6.60;;;0.90;99.90;;;;;;5009287;28;20037;-89
2023/01/19 12:03:34;;;;;;;12.23;6.50;;;1.00;99.90;;;;;;5009836;28;20436;-90
2023/01/19 12:06:10;;;;;;;12.30;6.70;;;1.10;99.90;;;;;;5009518;28;20463;-89
2023/01/19 12:08:50;;;;;;;9.63;6.50;;;1.20;99.90;;;;;;5031223;28;20018;-89
2023/01/19 12:11:20;;;;;;;10.77;6.13;;;1.20;99.90;;;;;;5014887;28;20116;-88
2023/01/19 12:13:48;;;;;;;10.73;6.30;;;1.30;99.90;;;;;;5028985;28;20441;-88
2023/01/19 12:16:19;;;;;;;13.77;6.70;;;1.30;99.90;;;;;;5032606;28;20497;-88
2023/01/19 12:18:57;;;;;;;10.33;7.00;;;1.40;99.90;;;;;;5031608;28;20024;-88
2023/01/19 12:21:22;;;;;;;9.97;6.37;;;1.50;99.90;;;;;;5013064;28;20367;-88
2023/01/19 12:24:00;;;;;;;10.50;5.87;;;1.40;99.90;;;;;;5029313;28;20024;-87
2023/01/19 12:26:35;;;;;;;10.93;6.17;;;1.50;99.90;;;;;;5024494;28;20076;-88
2023/01/19 12:29:11;;;;;;;;;;;1.40;99.90;;;;;;5031563;28;20117;-88
2023/01/19 12:31:39;;;;;;;;;;;1.40;99.90;;;;;;5027980;28;19909;-87
2023/01/19 12:34:30;;;;;;;9.23;6.20;;;1.30;99.90;;;;;;5026425;28;19931;-78
2023/01/19 12:37:04;;;;;;;11.33;6.07;;;1.30;99.90;;;;;;5011898;28;20036;-73
2023/01/19 12:39:34;;;;;;;11.13;6.17;;;1.20;99.90;;;;;;5027571;28;20107;-87
2023/01/19 12:42:13;;;;;;;11.90;6.77;;;1.20;99.90;;;;;;5027385;28;20386;-89
2023/01/19 12:44:40;;;;;;;11.50;6.57;;;1.20;99.90;;;;;;5003370;28;20033;-88
2023/01/19 12:47:19;;;;;;;11.20;5.93;;;1.10;99.90;;;;;;5027966;28;20463;-89
2023/01/19 12:49:48;;;;;;;14.70;6.57;;;1.10;99.90;;;;;;5030374;28;20029;-89
2023/01/19 12:52:32;;;;;;;11.20;6.27;;;1.10;99.90;;;;;;5028802;28;20022;-89